Time;durP1;ratioP1;P1;durP2;ratioP2;P2;SDS_P1;SDS_P2;PMS_P1;PMS_P2;Temp;Humidity;BMP_temperature;BMP_pressure;BME280_temperature;BME280_humidity;BME280_pressure;Samples;Min_cycle;Max_cycle;Signal;HPM_P1;HPM_P2
2023/04/13 00:01:00;;;;;;;;;;;;;;;10.21;100.00;98520.56;105475;1259;61031;-75
2023/04/13 00:03:32;;;;;;;;;;;;;;;10.15;100.00;98524.20;105405;1261;73663;-75
2023/04/13 00:06:01;;;;;;;;;;;;;;;10.09;100.00;98532.29;105438;1257;70152;-76
2023/04/13 00:08:35;;;;;;;;;;;;;;;10.07;100.00;98534.06;105029;1257;72476;-75
2023/04/13 00:11:05;;;;;;;;;;;;;;;10.05;100.00;98528.34;105047;1257;62986;-75
2023/04/13 00:13:39;;;;;;;;;;;;;;;10.04;100.00;98528.70;105160;1257;60544;-77
2023/04/13 00:16:14;;;;;;;;;;;;;;;10.03;100.00;98533.16;105835;1259;74950;-77
2023/04/13 00:18:46;;;;;;;;;;;;;;;10.06;100.00;98536.38;105880;1255;67594;-76
2023/04/13 00:21:15;;;;;;;;;;;;;;;10.08;100.00;98542.65;105670;1256;72465;-76
2023/04/13 00:23:44;;;;;;;;;;;;;;;10.07;100.00;98533.68;109093;1256;61566;-75
2023/04/13 00:26:14;;;;;;;;;;;;;;;10.10;100.00;98539.48;109141;1255;58387;-75
2023/04/13 00:28:43;;;;;;;;;;;;;;;10.14;100.00;98545.11;109212;1256;74058;-74
2023/04/13 00:31:11;;;;;;;;;;;;;;;10.15;100.00;98533.17;109187;1256;68321;-75
2023/04/13 00:33:40;;;;;;;;;;;;;;;10.14;100.00;98527.54;109168;1256;70776;-74
2023/04/13 00:36:09;;;;;;;;;;;;;;;10.14;100.00;98525.98;109097;1257;61791;-75
2023/04/13 00:38:37;;;;;;;;;;;;;;;10.14;100.00;98529.04;109226;1256;60124;-74
2023/04/13 00:41:07;;;;;;;;;;;;;;;10.14;100.00;98527.48;109112;1256;72904;-75
2023/04/13 00:43:35;;;;;;;;;;;;;;;10.17;100.00;98529.71;109135;1256;68134;-75
2023/04/13 00:46:05;;;;;;;;;;;;;;;10.20;100.00;98526.85;109163;1255;71282;-76
2023/04/13 00:48:36;;;;;;;;;;;;;;;10.22;100.00;98524.79;109164;1257;59557;-75
2023/04/13 00:51:04;;;;;;;;;;;;;;;10.21;100.00;98517.50;109206;1255;60369;-75
2023/04/13 00:53:32;;;;;;;;;;;;;;;10.19;100.00;98509.39;109122;1256;72988;-75
2023/04/13 00:56:06;;;;;;;;;;;;;;;10.17;100.00;98507.48;109097;1256;68413;-75
2023/04/13 00:58:36;;;;;;;;;;;;;;;10.17;100.00;98523.16;109130;1255;73760;-73
2023/04/13 01:01:04;;;;;;;;;;;;;;;10.16;100.00;98526.66;109168;1255;60259;-73
2023/04/13 01:03:38;;;;;;;;;;;;;;;10.15;100.00;98518.36;109094;1256;59189;-74
2023/04/13 01:06:07;;;;;;;;;;;;;;;10.14;100.00;98520.92;109013;1257;74030;-73
2023/04/13 01:08:37;;;;;;;;;;;;;;;10.15;100.00;98521.38;109183;1255;67237;-73
2023/04/13 01:11:12;;;;;;;;;;;;;;;10.14;100.00;98519.01;109107;1255;74055;-73
2023/04/13 01:14:01;;;;;;;;;;;;;;;10.05;100.00;98512.20;109214;1257;60729;-74
2023/04/13 01:16:30;;;;;;;;;;;;;;;9.98;100.00;98513.20;109160;1255;58362;-74
2023/04/13 01:19:00;;;;;;;;;;;;;;;9.91;100.00;98513.39;109257;1256;74812;-74
2023/04/13 01:21:28;;;;;;;;;;;;;;;9.87;100.00;98506.91;109266;1256;66094;-74
2023/04/13 01:24:08;;;;;;;;;;;;;;;9.88;100.00;98502.40;109293;1255;70835;-74
2023/04/13 01:26:52;;;;;;;;;;;;;;;9.90;100.00;98502.71;109126;1257;61983;-75
2023/04/13 01:29:20;;;;;;;;;;;;;;;9.91;100.00;98501.48;109275;1256;60073;-74
2023/04/13 01:31:53;;;;;;;;;;;;;;;9.88;100.00;98502.60;109156;1256;74050;-74
2023/04/13 01:34:22;;;;;;;;;;;;;;;9.85;100.00;98499.77;109150;1256;68114;-74
2023/04/13 01:36:50;;;;;;;;;;;;;;;9.83;100.00;98500.71;109150;1256;71514;-74
2023/04/13 01:39:18;;;;;;;;;;;;;;;9.86;100.00;98503.91;109255;1257;61476;-75
2023/04/13 01:41:48;;;;;;;;;;;;;;;9.87;100.00;98504.23;109182;1257;61226;-74
2023/04/13 01:44:17;;;;;;;;;;;;;;;9.84;100.00;98506.53;109241;1257;73038;-74
2023/04/13 01:46:46;;;;;;;;;;;;;;;9.82;100.00;98512.89;109246;1256;68113;-74
2023/04/13 01:49:39;;;;;;;;;;;;;;;9.88;100.00;98516.14;109282;1257;73912;-73
2023/04/13 01:52:28;;;;;;;;;;;;;;;9.96;100.00;98513.59;109113;1257;60092;-73
2023/04/13 01:54:56;;;;;;;;;;;;;;;10.00;100.00;98506.86;109159;1257;59803;-73
2023/04/13 01:57:25;;;;;;;;;;;;;;;10.02;100.00;98503.30;109152;1257;72305;-72
2023/04/13 01:59:53;;;;;;;;;;;;;;;9.97;100.00;98495.16;109211;1256;67024;-72
2023/04/13 02:02:21;;;;;;;;;;;;;;;9.88;100.00;98500.84;109258;1257;72936;-73
2023/04/13 02:04:51;;;;;;;;;;;;;;;9.86;100.00;98518.57;109258;1257;61977;-72
2023/04/13 02:07:19;;;;;;;;;;;;;;;9.83;100.00;98522.83;109281;1257;60427;-73
2023/04/13 02:09:49;;;;;;;;;;;;;;;9.82;100.00;98529.17;109281;1257;73377;-72
2023/04/13 02:12:18;;;;;;;;;;;;;;;9.85;100.00;98526.73;109136;1256;65815;-72
2023/04/13 02:14:49;;;;;;;;;;;;;;;9.87;100.00;98519.91;109214;1258;73557;-72
2023/04/13 02:17:18;;;;;;;;;;;;;;;9.86;100.00;98521.30;109129;1261;60612;-72
2023/04/13 02:19:46;;;;;;;;;;;;;;;9.91;100.00;98521.66;109221;1257;58859;-73
2023/04/13 02:22:18;;;;;;;;;;;;;;;9.93;100.00;98522.73;109232;1256;73100;-72
2023/04/13 02:24:49;;;;;;;;;;;;;;;9.94;100.00;98519.23;109223;1256;66778;-73
2023/04/13 02:27:17;;;;;;;;;;;;;;;9.94;100.00;98519.55;109262;1257;70813;-72
2023/04/13 02:29:46;;;;;;;;;;;;;;;9.92;100.00;98515.96;109131;1257;62197;-73
2023/04/13 02:32:21;;;;;;;;;;;;;;;9.96;100.00;98522.02;109231;1257;58869;-73
2023/04/13 02:34:50;;;;;;;;;;;;;;;10.01;100.00;98525.55;109125;1256;73822;-74
2023/04/13 02:37:19;;;;;;;;;;;;;;;10.01;100.00;98521.38;109158;1256;67887;-74
2023/04/13 02:39:49;;;;;;;;;;;;;;;10.04;100.00;98518.98;109186;1259;72894;-74
2023/04/13 02:42:18;;;;;;;;;;;;;;;10.09;100.00;98523.10;109120;1257;61205;-74
2023/04/13 02:44:48;;;;;;;;;;;;;;;10.15;100.00;98521.89;109163;1257;60191;-74
2023/04/13 02:47:17;;;;;;;;;;;;;;;10.13;100.00;98526.73;109136;1261;72793;-74
2023/04/13 02:49:45;;;;;;;;;;;;;;;10.13;100.00;98523.39;109160;1256;67665;-73
2023/04/13 02:52:26;;;;;;;;;;;;;;;10.14;100.00;98518.30;109154;1257;72256;-73
2023/04/13 02:55:01;;;;;;;;;;;;;;;10.10;100.00;98514.94;109129;1256;61142;-74
2023/04/13 02:57:34;;;;;;;;;;;;;;;10.04;100.00;98512.48;109182;1256;60358;-73
2023/04/13 03:00:09;;;;;;;;;;;;;;;10.00;100.00;98515.40;109131;1256;72843;-74
2023/04/13 03:03:03;;;;;;;;;;;;;;;9.97;100.00;98516.01;109165;1256;69793;-74
2023/04/13 03:05:36;;;;;;;;;;;;;;;9.96;100.00;98513.21;109210;1256;70660;-73
2023/04/13 03:08:05;;;;;;;;;;;;;;;9.97;100.00;98520.14;109202;1257;60656;-74
2023/04/13 03:10:36;;;;;;;;;;;;;;;10.00;100.00;98526.20;109162;1257;60155;-73
2023/04/13 03:13:08;;;;;;;;;;;;;;;9.99;100.00;98527.70;109101;1262;74587;-74
2023/04/13 03:15:36;;;;;;;;;;;;;;;10.00;100.00;98523.89;109122;1257;67598;-74
2023/04/13 03:18:05;;;;;;;;;;;;;;;10.03;100.00;98525.76;109119;1257;71183;-74
2023/04/13 03:20:36;;;;;;;;;;;;;;;10.04;100.00;98531.45;109092;1257;62568;-74
2023/04/13 03:23:06;;;;;;;;;;;;;;;10.09;100.00;98531.27;109112;1257;60500;-74
2023/04/13 03:25:36;;;;;;;;;;;;;;;10.17;100.00;98535.23;109131;1262;71776;-73
2023/04/13 03:28:04;;;;;;;;;;;;;;;10.23;100.00;98535.44;109133;1257;65963;-73
2023/04/13 03:30:36;;;;;;;;;;;;;;;10.29;100.00;98537.88;109098;1257;70664;-73
2023/04/13 03:33:12;;;;;;;;;;;;;;;10.30;100.00;98540.67;109091;1257;60384;-74
2023/04/13 03:35:40;;;;;;;;;;;;;;;10.32;100.00;98544.52;109182;1261;61324;-74
2023/04/13 03:38:14;;;;;;;;;;;;;;;10.34;100.00;98546.61;109088;1256;73464;-72
2023/04/13 03:40:45;;;;;;;;;;;;;;;10.31;100.00;98545.87;109161;1257;68137;-73
2023/04/13 03:43:14;;;;;;;;;;;;;;;10.24;100.00;98540.70;109098;1256;70604;-74
2023/04/13 03:45:45;;;;;;;;;;;;;;;10.19;100.00;98543.94;109090;1257;61392;-73
2023/04/13 03:48:14;;;;;;;;;;;;;;;10.17;100.00;98541.58;109126;1257;59417;-71
2023/04/13 03:50:42;;;;;;;;;;;;;;;10.16;100.00;98538.41;109122;1256;71973;-72
2023/04/13 03:53:11;;;;;;;;;;;;;;;10.18;100.00;98541.09;109114;1256;67613;-73
2023/04/13 03:55:40;;;;;;;;;;;;;;;10.19;100.00;98540.77;109126;1257;71964;-73
2023/04/13 03:58:10;;;;;;;;;;;;;;;10.17;100.00;98544.65;109085;1262;58283;-73
2023/04/13 04:00:40;;;;;;;;;;;;;;;10.18;100.00;98551.73;109129;1257;58897;-73
2023/04/13 04:03:16;;;;;;;;;;;;;;;10.19;100.00;98555.33;109104;1262;72988;-72
2023/04/13 04:05:53;;;;;;;;;;;;;;;10.17;100.00;98558.02;109134;1256;68347;-73
2023/04/13 04:08:23;;;;;;;;;;;;;;;10.18;100.00;98560.02;109093;1257;70670;-72
2023/04/13 04:10:52;;;;;;;;;;;;;;;10.14;100.00;98559.79;109075;1256;60433;-73
2023/04/13 04:13:22;;;;;;;;;;;;;;;10.06;100.00;98562.34;109094;1257;59767;-74
2023/04/13 04:15:53;;;;;;;;;;;;;;;10.09;100.00;98564.15;109101;1258;73920;-73
2023/04/13 04:18:23;;;;;;;;;;;;;;;10.18;100.00;98566.35;109110;1258;67076;-75
2023/04/13 04:20:53;;;;;;;;;;;;;;;10.22;100.00;98569.50;109087;1258;72898;-74
2023/04/13 04:23:21;;;;;;;;;;;;;;;10.25;100.00;98567.19;109041;1262;59279;-74
2023/04/13 04:25:58;;;;;;;;;;;;;;;10.27;100.00;98569.33;109108;1257;58800;-73
2023/04/13 04:28:30;;;;;;;;;;;;;;;10.26;100.00;98567.18;109071;1257;73227;-72
2023/04/13 04:31:00;;;;;;;;;;;;;;;10.29;100.00;98572.48;109107;1257;67159;-72
2023/04/13 04:33:29;;;;;;;;;;;;;;;10.29;100.00;98574.31;109100;1257;72232;-74
2023/04/13 04:36:00;;;;;;;;;;;;;;;10.24;100.00;98577.13;109090;1257;63341;-72
2023/04/13 04:38:31;;;;;;;;;;;;;;;10.20;100.00;98576.29;109093;1257;60962;-72
2023/04/13 04:41:02;;;;;;;;;;;;;;;10.21;100.00;98579.83;109024;1259;71642;-74
2023/04/13 04:43:31;;;;;;;;;;;;;;;10.22;100.00;98583.73;109022;1257;67948;-73
2023/04/13 04:46:03;;;;;;;;;;;;;;;10.27;100.00;98581.36;109065;1262;73737;-74
2023/04/13 04:48:32;;;;;;;;;;;;;;;10.32;100.00;98578.48;109050;1259;61721;-73
2023/04/13 04:51:02;;;;;;;;;;;;;;;10.38;100.00;98575.73;109036;1257;60791;-72
2023/04/13 04:53:34;;;;;;;;;;;;;;;10.41;100.00;98568.83;109080;1258;74109;-72
2023/04/13 04:56:03;;;;;;;;;;;;;;;10.36;100.00;98565.20;109088;1257;66754;-70
2023/04/13 04:58:43;;;;;;;;;;;;;;;10.30;100.00;98562.70;109054;1258;73626;-71
2023/04/13 05:01:11;;;;;;;;;;;;;;;10.25;100.00;98556.61;108993;1258;60794;-73
2023/04/13 05:03:41;;;;;;;;;;;;;;;10.22;100.00;98551.06;109059;1258;59084;-72
2023/04/13 05:06:31;;;;;;;;;;;;;;;10.18;100.00;98550.71;109065;1262;75080;-74
2023/04/13 05:09:01;;;;;;;;;;;;;;;10.18;100.00;98560.13;109104;1257;67195;-71
2023/04/13 05:11:29;;;;;;;;;;;;;;;10.24;100.00;98577.23;109050;1259;71351;-71
2023/04/13 05:13:59;;;;;;;;;;;;;;;10.32;100.00;98580.91;108991;1260;61291;-73
2023/04/13 05:16:29;;;;;;;;;;;;;;;10.36;100.00;98581.86;109083;1260;61225;-72
2023/04/13 05:19:04;;;;;;;;;;;;;;;10.43;100.00;98577.38;109021;1263;73982;-70
2023/04/13 05:21:52;;;;;;;;;;;;;;;10.50;100.00;98582.60;109078;1262;66229;-71
2023/04/13 05:24:20;;;;;;;;;;;;;;;10.54;100.00;98585.11;109045;1260;72666;-72
2023/04/13 05:26:48;;;;;;;;;;;;;;;10.60;100.00;98585.36;109013;1260;60943;-72
2023/04/13 05:29:21;;;;;;;;;;;;;;;10.69;100.00;98587.46;108999;1260;59319;-71
2023/04/13 05:31:50;;;;;;;;;;;;;;;10.78;100.00;98581.87;109027;1260;73466;-70
2023/04/13 05:34:19;;;;;;;;;;;;;;;10.85;100.00;98576.71;109055;1259;68987;-71
2023/04/13 05:37:01;;;;;;;;;;;;;;;10.91;100.00;98577.27;109026;1260;71803;-70
2023/04/13 05:39:30;;;;;;;;;;;;;;;10.98;100.00;98579.32;109007;1260;58663;-72
2023/04/13 05:42:00;;;;;;;;;;;;;;;11.00;100.00;98579.77;109024;1258;61026;-74
2023/04/13 05:44:32;;;;;;;;;;;;;;;11.00;100.00;98582.48;108639;1261;541976;-72
2023/04/13 05:47:01;;;;;;;;;;;;;;;10.99;100.00;98589.86;109041;1260;66945;-72
2023/04/13 05:49:31;;;;;;;;;;;;;;;11.00;100.00;98593.66;109003;1260;72549;-72
2023/04/13 05:52:02;;;;;;;;;;;;;;;11.02;100.00;98592.10;109001;1258;61362;-72
2023/04/13 05:54:38;;;;;;;;;;;;;;;11.07;99.79;98591.70;109036;1258;59181;-71
2023/04/13 05:57:08;;;;;;;;;;;;;;;11.11;99.55;98591.92;109049;1260;73718;-73
2023/04/13 05:59:41;;;;;;;;;;;;;;;11.11;98.81;98591.87;109074;1260;69596;-74
2023/04/13 06:02:10;;;;;;;;;;;;;;;11.07;98.62;98591.33;108967;1260;71502;-73
2023/04/13 06:04:40;;;;;;;;;;;;;;;11.05;99.09;98589.65;109039;1260;59465;-72
2023/04/13 06:07:15;;;;;;;;;;;;;;;11.07;99.49;98585.23;109057;1260;59234;-73
2023/04/13 06:09:43;;;;;;;;;;;;;;;11.14;99.62;98584.91;109087;1259;74113;-73
2023/04/13 06:12:19;;;;;;;;;;;;;;;11.23;99.52;98585.06;109003;1260;66995;-73
2023/04/13 06:14:49;;;;;;;;;;;;;;;11.28;99.15;98589.44;109088;1260;71623;-72
2023/04/13 06:17:18;;;;;;;;;;;;;;;11.33;98.76;98592.89;108966;1259;60469;-72
2023/04/13 06:19:46;;;;;;;;;;;;;;;11.32;97.67;98594.23;109024;1260;59862;-72
2023/04/13 06:22:14;;;;;;;;;;;;;;;11.33;97.57;98590.89;108997;1260;72164;-72
2023/04/13 06:24:43;;;;;;;;;;;;;;;11.36;97.19;98592.22;109071;1261;69051;-71
2023/04/13 06:27:12;;;;;;;;;;;;;;;11.42;96.30;98594.88;109049;1261;71440;-73
2023/04/13 06:29:43;;;;;;;;;;;;;;;11.48;95.20;98600.31;109005;1260;59106;-71
2023/04/13 06:32:12;;;;;;;;;;;;;;;11.50;94.25;98598.73;109030;1260;59595;-74
2023/04/13 06:34:40;;;;;;;;;;;;;;;11.52;93.37;98602.09;109049;1259;72116;-74
2023/04/13 06:37:08;;;;;;;;;;;;;;;11.53;92.86;98606.73;109023;1259;67041;-74
2023/04/13 06:39:46;;;;;;;;;;;;;;;11.50;91.75;98615.20;109050;1258;72149;-75
2023/04/13 06:42:20;;;;;;;;;;;;;;;11.45;91.88;98622.64;108972;1260;60968;-71
2023/04/13 06:45:23;;;;;;;;;;;;;;;11.44;91.94;98623.43;109064;1262;58310;-73
2023/04/13 06:47:53;;;;;;;;;;;;;;;11.51;92.23;98622.85;109011;1259;73287;-73
2023/04/13 06:50:24;;;;;;;;;;;;;;;11.62;91.85;98623.63;109032;1259;67132;-71
2023/04/13 06:52:53;;;;;;;;;;;;;;;11.67;90.97;98620.83;109010;1260;73576;-71
2023/04/13 06:55:27;;;;;;;;;;;;;;;11.73;90.62;98613.05;109021;1260;60506;-72
2023/04/13 06:57:57;;;;;;;;;;;;;;;11.75;90.21;98612.48;109039;1259;58919;-71
2023/04/13 07:00:27;;;;;;;;;;;;;;;11.75;89.80;98610.05;109067;1259;75026;-74
2023/04/13 07:03:00;;;;;;;;;;;;;;;11.78;89.98;98610.79;109022;1260;67750;-71
2023/04/13 07:05:30;;;;;;;;;;;;;;;11.80;89.85;98609.90;109058;1260;73622;-71
2023/04/13 07:08:04;;;;;;;;;;;;;;;11.83;89.55;98611.07;108977;1260;61670;-72
2023/04/13 07:10:38;;;;;;;;;;;;;;;11.86;88.56;98613.35;109039;1260;61186;-73
2023/04/13 07:13:15;;;;;;;;;;;;;;;11.88;88.57;98618.63;109043;1260;73514;-72
2023/04/13 07:15:44;;;;;;;;;;;;;;;11.91;88.34;98620.20;109070;1259;66625;-71
2023/04/13 07:18:15;;;;;;;;;;;;;;;11.88;87.59;98626.17;108976;1261;71448;-72
2023/04/13 07:20:46;;;;;;;;;;;;;;;11.86;87.67;98627.14;108989;1260;61950;-71
2023/04/13 07:23:18;;;;;;;;;;;;;;;11.91;87.73;98625.31;108990;1259;60126;-70
2023/04/13 07:25:49;;;;;;;;;;;;;;;11.98;87.00;98629.67;108989;1260;73845;-70
2023/04/13 07:28:23;;;;;;;;;;;;;;;12.04;86.62;98631.02;108995;1260;69200;-71
2023/04/13 07:30:55;;;;;;;;;;;;;;;12.12;86.15;98635.50;108970;1260;71371;-70
2023/04/13 07:33:26;;;;;;;;;;;;;;;12.15;85.93;98640.55;108958;1259;58862;-71
2023/04/13 07:36:15;;;;;;;;;;;;;;;12.16;84.78;98640.48;109059;1260;61614;-70
2023/04/13 07:38:50;;;;;;;;;;;;;;;12.11;84.41;98633.79;109043;1260;72296;-71
2023/04/13 07:41:23;;;;;;;;;;;;;;;12.13;85.06;98635.23;108993;1260;67187;-69
2023/04/13 07:43:57;;;;;;;;;;;;;;;12.20;85.09;98632.94;108967;1259;72796;-69
2023/04/13 07:46:27;;;;;;;;;;;;;;;12.25;85.13;98630.57;109018;1259;58419;-70
2023/04/13 07:48:59;;;;;;;;;;;;;;;12.32;85.61;98631.14;109048;1260;59162;-70
2023/04/13 07:51:33;;;;;;;;;;;;;;;12.42;84.25;98631.84;108962;1264;74109;-70
2023/04/13 07:54:04;;;;;;;;;;;;;;;12.43;83.90;98632.02;108968;1260;67971;-70
2023/04/13 07:56:35;;;;;;;;;;;;;;;12.47;84.06;98639.60;108962;1259;72728;-72
2023/04/13 07:59:05;;;;;;;;;;;;;;;12.54;83.73;98646.15;108972;1260;60374;-71
2023/04/13 08:01:35;;;;;;;;;;;;;;;12.59;82.84;98648.84;109010;1259;58146;-73
2023/04/13 08:04:06;;;;;;;;;;;;;;;12.55;82.33;98649.80;109019;1260;74882;-72
2023/04/13 08:06:39;;;;;;;;;;;;;;;12.53;82.93;98653.28;108992;1259;67981;-72
2023/04/13 08:16:54;;;;;;;;;;;;;;;12.71;81.48;98654.41;102098;1295;598743;-74
2023/04/13 08:19:23;;;;;;;;;;;;;;;12.69;80.46;98662.75;104504;1273;62316;-72
2023/04/13 08:21:53;;;;;;;;;;;;;;;12.71;80.61;98664.55;104580;1269;60383;-73
2023/04/13 08:24:23;;;;;;;;;;;;;;;12.75;81.55;98667.22;104572;1273;73210;-72
2023/04/13 08:26:53;;;;;;;;;;;;;;;12.78;81.52;98663.39;104896;1274;68239;-72
2023/04/13 08:29:24;;;;;;;;;;;;;;;12.80;81.48;98661.38;103932;1269;704842;-71
2023/04/13 08:31:56;;;;;;;;;;;;;;;12.79;81.39;98664.20;104456;1269;62283;-72
2023/04/13 08:34:26;;;;;;;;;;;;;;;12.76;81.76;98665.90;104617;1266;60691;-73
2023/04/13 08:36:54;;;;;;;;;;;;;;;12.73;81.37;98669.50;104579;1267;72191;-74
2023/04/13 08:39:26;;;;;;;;;;;;;;;12.73;81.84;98666.74;104898;1270;69316;-71
2023/04/13 08:41:56;;;;;;;;;;;;;;;12.70;81.53;98669.59;104746;1266;73578;-72
2023/04/13 08:44:26;;;;;;;;;;;;;;;12.68;81.19;98676.47;104457;1271;61457;-74
2023/04/13 08:46:58;;;;;;;;;;;;;;;12.64;81.28;98677.59;104552;1266;61119;-71
2023/04/13 08:49:31;;;;;;;;;;;;;;;12.64;81.60;98677.00;104622;1266;71839;-73
2023/04/13 08:52:07;;;;;;;;;;;;;;;12.62;81.30;98674.79;104649;1271;71257;-71
2023/04/13 08:54:40;;;;;;;;;;;;;;;12.58;80.94;98678.89;104472;1271;71962;-71
2023/04/13 08:57:16;;;;;;;;;;;;;;;12.54;81.23;98680.04;104734;1266;60822;-70
2023/04/13 08:59:45;;;;;;;;;;;;;;;12.49;81.96;98680.46;105083;1266;60110;-74
2023/04/13 09:02:13;;;;;;;;;;;;;;;12.48;82.33;98680.05;104842;1269;74881;-77
2023/04/13 09:04:52;;;;;;;;;;;;;;;12.44;82.70;98676.73;105011;1266;67915;-75
2023/04/13 09:07:28;;;;;;;;;;;;;;;12.42;82.84;98675.40;104598;1269;71544;-71
2023/04/13 09:10:01;;;;;;;;;;;;;;;12.44;82.79;98677.39;104382;1269;60406;-71
2023/04/13 09:12:32;;;;;;;;;;;;;;;12.45;82.15;98681.31;104589;1271;60165;-69
2023/04/13 09:15:02;;;;;;;;;;;;;;;12.46;81.87;98679.48;104628;1269;74690;-71
2023/04/13 09:17:32;;;;;;;;;;;;;;;12.48;81.98;98681.23;104539;1269;67804;-72
2023/04/13 09:20:16;;;;;;;;;;;;;;;12.52;82.41;98683.55;104679;1269;73404;-74
2023/04/13 09:22:44;;;;;;;;;;;;;;;12.56;82.08;98687.61;105215;1267;61708;-74
2023/04/13 09:25:28;;;;;;;;;;;;;;;12.59;81.61;98683.48;104671;1268;60481;-74
2023/04/13 09:27:57;;;;;;;;;;;;;;;12.65;82.12;98676.83;104352;1268;73035;-70
2023/04/13 09:30:28;;;;;;;;;;;;;;;12.72;81.72;98675.12;105557;1260;68492;-71
2023/04/13 09:33:02;;;;;;;;;;;;;;;12.75;81.65;98674.08;105256;1261;74490;-70
2023/04/13 09:35:31;;;;;;;;;;;;;;;12.77;81.48;98674.14;105067;1258;61316;-70
2023/04/13 09:37:59;;;;;;;;;;;;;;;12.80;81.27;98679.66;105461;1259;61319;-71
2023/04/13 09:40:27;;;;;;;;;;;;;;;12.81;80.76;98681.47;105206;1264;72520;-70
2023/04/13 09:43:00;;;;;;;;;;;;;;;12.83;80.50;98681.58;105255;1259;67945;-71
2023/04/13 09:45:32;;;;;;;;;;;;;;;12.83;80.43;98685.29;105048;1259;73694;-71
2023/04/13 09:48:01;;;;;;;;;;;;;;;12.82;80.49;98686.23;105105;1258;59745;-72
2023/04/13 09:50:32;;;;;;;;;;;;;;;12.82;80.79;98686.06;105267;1261;59365;-72
2023/04/13 09:53:03;;;;;;;;;;;;;;;12.80;80.94;98688.03;105067;1259;74837;-74
2023/04/13 09:55:32;;;;;;;;;;;;;;;12.80;80.85;98688.67;105146;1257;68350;-71
2023/04/13 09:58:09;;;;;;;;;;;;;;;12.79;80.77;98686.86;105276;1258;72703;-73
2023/04/13 10:00:41;;;;;;;;;;;;;;;12.75;80.58;98695.42;105146;1259;62176;-74
2023/04/13 10:03:10;;;;;;;;;;;;;;;12.71;81.17;98695.79;105438;1259;61512;-72
2023/04/13 10:05:40;;;;;;;;;;;;;;;12.72;80.99;98702.05;105180;1259;73850;-73
2023/04/13 10:08:24;;;;;;;;;;;;;;;12.70;81.23;98701.33;105330;1258;68109;-74
2023/04/13 10:11:10;;;;;;;;;;;;;;;12.71;81.31;98704.86;105151;1259;73377;-76
2023/04/13 10:13:41;;;;;;;;;;;;;;;12.68;81.39;98707.48;105350;1259;62082;-73
2023/04/13 10:16:23;;;;;;;;;;;;;;;12.61;81.04;98706.38;105521;1261;60772;-73
2023/04/13 10:19:07;;;;;;;;;;;;;;;12.51;80.79;98708.92;105733;1259;71996;-72
2023/04/13 10:21:38;;;;;;;;;;;;;;;12.40;80.40;98711.50;105326;1264;67011;-74
2023/04/13 10:24:08;;;;;;;;;;;;;;;12.30;80.15;98715.55;105225;1264;74327;-72
2023/04/13 10:26:40;;;;;;;;;;;;;;;12.22;80.52;98718.81;106076;1259;59953;-70
2023/04/13 10:29:10;;;;;;;;;;;;;;;12.21;81.04;98717.64;105535;1261;59802;-69
2023/04/13 10:31:40;;;;;;;;;;;;;;;12.21;81.82;98720.55;105270;1261;73890;-72
2023/04/13 10:34:09;;;;;;;;;;;;;;;12.20;82.13;98721.52;106097;1258;69676;-71
2023/04/13 10:36:41;;;;;;;;;;;;;;;12.16;82.78;98723.55;105495;1260;74506;-72
2023/04/13 10:39:10;;;;;;;;;;;;;;;12.12;83.14;98720.95;105296;1259;62476;-72
2023/04/13 10:41:38;;;;;;;;;;;;;;;12.08;83.52;98720.23;105288;1258;61522;-71
2023/04/13 10:44:06;;;;;;;;;;;;;;;12.07;83.77;98721.64;105346;1259;72882;-71
2023/04/13 10:46:35;;;;;;;;;;;;;;;12.07;83.98;98716.63;105228;1259;67653;-71
2023/04/13 10:49:03;;;;;;;;;;;;;;;12.06;83.86;98718.58;105236;1259;73470;-70
2023/04/13 10:51:39;;;;;;;;;;;;;;;12.03;84.00;98722.05;105219;1262;61954;-70
2023/04/13 10:54:07;;;;;;;;;;;;;;;11.99;84.56;98728.55;105175;1258;60304;-70
2023/04/13 10:56:36;;;;;;;;;;;;;;;11.97;85.12;98736.55;105468;1261;73981;-72
2023/04/13 10:59:04;;;;;;;;;;;;;;;11.92;85.71;98741.61;105284;1262;69509;-70
2023/04/13 11:01:32;;;;;;;;;;;;;;;11.93;85.93;98745.43;105336;1263;73502;-72
2023/04/13 11:04:02;;;;;;;;;;;;;;;11.91;85.91;98744.41;105443;1261;62465;-71
2023/04/13 11:06:37;;;;;;;;;;;;;;;11.89;85.94;98749.66;105099;1258;60910;-69
2023/04/13 11:09:10;;;;;;;;;;;;;;;11.91;85.88;98749.36;105282;1261;73006;-71
2023/04/13 11:11:42;;;;;;;;;;;;;;;11.86;85.99;98752.25;105295;1257;69848;-71
2023/04/13 11:14:19;;;;;;;;;;;;;;;11.83;86.25;98754.17;105238;1256;71952;-73
2023/04/13 11:16:48;;;;;;;;;;;;;;;11.79;86.22;98757.70;105156;1256;62702;-70
2023/04/13 11:19:17;;;;;;;;;;;;;;;11.79;86.45;98758.58;105366;1262;60737;-72
2023/04/13 11:21:52;;;;;;;;;;;;;;;11.76;86.68;98760.56;105309;1260;74359;-77
2023/04/13 11:24:25;;;;;;;;;;;;;;;11.75;87.23;98756.64;106071;1261;68381;-77
2023/04/13 11:26:53;;;;;;;;;;;;;;;11.76;87.42;98754.48;105891;1261;72030;-73
2023/04/13 11:29:23;;;;;;;;;;;;;;;11.76;87.05;98756.85;105798;1256;61663;-74
2023/04/13 11:31:51;;;;;;;;;;;;;;;11.75;87.13;98752.23;105975;1256;61674;-73
2023/04/13 11:34:27;;;;;;;;;;;;;;;11.73;87.24;98749.02;105790;1261;74693;-75
2023/04/13 11:36:59;;;;;;;;;;;;;;;11.72;87.62;98750.08;105859;1256;67388;-73
2023/04/13 11:39:31;;;;;;;;;;;;;;;11.68;88.02;98752.52;105668;1261;73662;-79
2023/04/13 11:42:03;;;;;;;;;;;;;;;11.67;88.71;98753.86;106005;1263;59893;-75
2023/04/13 11:44:33;;;;;;;;;;;;;;;11.69;88.93;98749.17;106101;1256;61715;-80
2023/04/13 11:47:01;;;;;;;;;;;;;;;11.71;88.88;98747.05;106129;1256;71820;-79
2023/04/13 11:49:30;;;;;;;;;;;;;;;11.74;89.12;98750.15;106331;1260;68967;-81
2023/04/13 11:51:58;;;;;;;;;;;;;;;11.73;89.54;98748.42;106296;1261;73867;-79
2023/04/13 11:54:27;;;;;;;;;;;;;;;11.74;89.53;98747.99;106005;1258;61152;-79
2023/04/13 11:56:56;;;;;;;;;;;;;;;11.74;89.23;98748.35;106507;1256;61381;-69
2023/04/13 11:59:27;;;;;;;;;;;;;;;11.75;89.19;98749.48;105904;1256;74541;-69
2023/04/13 12:01:55;;;;;;;;;;;;;;;11.77;88.78;98753.89;105528;1259;68436;-69
2023/04/13 12:04:39;;;;;;;;;;;;;;;11.77;88.33;98759.92;105741;1260;72636;-69
2023/04/13 12:07:12;;;;;;;;;;;;;;;11.77;88.66;98761.42;105548;1262;59756;-74
2023/04/13 12:09:45;;;;;;;;;;;;;;;11.78;88.49;98760.79;106027;1261;61353;-73
2023/04/13 12:12:25;;;;;;;;;;;;;;;11.81;88.03;98754.67;106116;1260;72807;-81
2023/04/13 12:14:57;;;;;;;;;;;;;;;11.87;87.33;98752.69;107901;1256;69174;-73
2023/04/13 12:17:51;;;;;;;;;;;;;;;11.90;86.74;98757.08;107629;1262;74182;-71
2023/04/13 12:20:24;;;;;;;;;;;;;;;11.90;86.30;98755.14;107448;1259;62184;-72
2023/04/13 12:22:52;;;;;;;;;;;;;;;11.88;86.31;98757.16;107856;1258;61821;-71
2023/04/13 12:25:35;;;;;;;;;;;;;;;11.88;86.36;98753.44;107166;1259;72740;-72
2023/04/13 12:28:04;;;;;;;;;;;;;;;11.90;86.46;98753.80;107862;1259;68053;-72
2023/04/13 12:30:33;;;;;;;;;;;;;;;11.91;86.54;98755.08;107777;1264;73322;-78
2023/04/13 12:33:17;;;;;;;;;;;;;;;11.91;86.75;98755.30;106798;1259;62541;-76
2023/04/13 12:35:45;;;;;;;;;;;;;;;11.96;86.30;98756.67;106878;1261;61145;-75
2023/04/13 12:38:13;;;;;;;;;;;;;;;11.99;85.92;98756.42;107471;1256;74214;-76
2023/04/13 12:40:41;;;;;;;;;;;;;;;12.01;85.65;98762.33;107069;1260;68319;-78
2023/04/13 12:43:09;;;;;;;;;;;;;;;12.03;85.44;98762.54;106654;1260;74439;-82
2023/04/13 12:45:38;;;;;;;;;;;;;;;12.02;85.38;98766.73;107578;1257;62463;-78
2023/04/13 12:48:07;;;;;;;;;;;;;;;11.97;85.61;98767.11;107223;1257;61743;-79
2023/04/13 12:50:38;;;;;;;;;;;;;;;11.96;85.67;98766.09;107044;1261;75697;-82
2023/04/13 12:53:06;;;;;;;;;;;;;;;11.98;85.45;98766.23;106806;1260;67292;-79
2023/04/13 12:55:34;;;;;;;;;;;;;;;12.00;85.21;98764.77;106151;1260;73416;-84
2023/04/13 12:58:02;;;;;;;;;;;;;;;11.98;85.00;98760.80;106218;1260;61214;-79
2023/04/13 13:00:31;;;;;;;;;;;;;;;11.96;85.33;98765.92;105912;1261;60397;-80
2023/04/13 13:03:19;;;;;;;;;;;;;;;11.95;85.86;98764.46;105934;1260;76799;-80